sensor_id;sensor_type;location;lat;lon;timestamp;P1;durP1;ratioP1;P2;durP2;ratioP2
20880;SDS011;10600;53.096;8.802;2023-05-10T00:00:15;6.68;;;3.95;;
20880;SDS011;10600;53.096;8.802;2023-05-10T00:01:16;5.25;;;3.90;;
20880;SDS011;10600;53.096;8.802;2023-05-10T00:02:16;6.10;;;4.20;;
20880;SDS011;10600;53.096;8.802;2023-05-10T00:03:17;5.78;;;3.58;;
20880;SDS011;10600;53.096;8.802;2023-05-10T00:04:17;6.88;;;4.10;;
20880;SDS011;10600;53.096;8.802;2023-05-10T00:05:18;5.97;;;3.50;;
20880;SDS011;10600;53.096;8.802;2023-05-10T00:06:19;8.43;;;3.42;;
20880;SDS011;10600;53.096;8.802;2023-05-10T00:07:20;5.50;;;3.60;;
20880;SDS011;10600;53.096;8.802;2023-05-10T00:08:21;5.35;;;3.85;;
20880;SDS011;10600;53.096;8.802;2023-05-10T00:09:21;5.60;;;3.70;;
20880;SDS011;10600;53.096;8.802;2023-05-10T00:10:22;4.43;;;3.30;;
20880;SDS011;10600;53.096;8.802;2023-05-10T00:11:23;5.82;;;3.85;;
20880;SDS011;10600;53.096;8.802;2023-05-10T00:12:24;6.35;;;3.42;;
20880;SDS011;10600;53.096;8.802;2023-05-10T00:13:24;7.35;;;4.13;;
20880;SDS011;10600;53.096;8.802;2023-05-10T00:14:25;5.65;;;3.67;;
20880;SDS011;10600;53.096;8.802;2023-05-10T00:15:25;4.63;;;3.40;;
20880;SDS011;10600;53.096;8.802;2023-05-10T00:16:26;6.32;;;3.97;;
20880;SDS011;10600;53.096;8.802;2023-05-10T00:17:27;4.85;;;3.20;;
20880;SDS011;10600;53.096;8.802;2023-05-10T00:18:27;6.05;;;4.07;;
20880;SDS011;10600;53.096;8.802;2023-05-10T00:19:28;6.53;;;3.63;;
20880;SDS011;10600;53.096;8.802;2023-05-10T00:20:28;6.00;;;3.85;;
20880;SDS011;10600;53.096;8.802;2023-05-10T00:21:29;6.30;;;3.75;;
20880;SDS011;10600;53.096;8.802;2023-05-10T00:22:30;4.10;;;3.38;;
20880;SDS011;10600;53.096;8.802;2023-05-10T00:23:31;7.55;;;3.90;;
20880;SDS011;10600;53.096;8.802;2023-05-10T00:24:32;6.35;;;3.55;;
20880;SDS011;10600;53.096;8.802;2023-05-10T00:25:33;6.32;;;3.38;;
20880;SDS011;10600;53.096;8.802;2023-05-10T00:26:33;7.63;;;3.25;;
20880;SDS011;10600;53.096;8.802;2023-05-10T00:27:34;5.88;;;3.55;;
20880;SDS011;10600;53.096;8.802;2023-05-10T00:28:35;9.68;;;3.80;;
20880;SDS011;10600;53.096;8.802;2023-05-10T00:29:35;8.05;;;4.35;;
20880;SDS011;10600;53.096;8.802;2023-05-10T00:30:36;6.20;;;4.05;;
20880;SDS011;10600;53.096;8.802;2023-05-10T00:31:37;6.95;;;3.50;;
20880;SDS011;10600;53.096;8.802;2023-05-10T00:32:37;6.38;;;3.25;;
20880;SDS011;10600;53.096;8.802;2023-05-10T00:33:38;7.30;;;3.95;;
20880;SDS011;10600;53.096;8.802;2023-05-10T00:34:39;6.18;;;3.67;;
20880;SDS011;10600;53.096;8.802;2023-05-10T00:35:39;4.57;;;3.30;;
20880;SDS011;10600;53.096;8.802;2023-05-10T00:36:40;6.40;;;3.50;;
20880;SDS011;10600;53.096;8.802;2023-05-10T00:37:41;7.55;;;3.97;;
20880;SDS011;10600;53.096;8.802;2023-05-10T00:38:42;5.55;;;4.00;;
20880;SDS011;10600;53.096;8.802;2023-05-10T00:39:42;7.05;;;3.80;;
20880;SDS011;10600;53.096;8.802;2023-05-10T00:40:43;7.85;;;3.63;;
20880;SDS011;10600;53.096;8.802;2023-05-10T00:41:44;6.93;;;3.70;;
20880;SDS011;10600;53.096;8.802;2023-05-10T00:42:45;4.65;;;3.58;;
20880;SDS011;10600;53.096;8.802;2023-05-10T00:43:45;6.50;;;3.42;;
20880;SDS011;10600;53.096;8.802;2023-05-10T00:44:46;8.25;;;4.40;;
20880;SDS011;10600;53.096;8.802;2023-05-10T00:45:46;6.68;;;4.00;;
20880;SDS011;10600;53.096;8.802;2023-05-10T00:46:47;6.50;;;3.85;;
20880;SDS011;10600;53.096;8.802;2023-05-10T00:47:49;8.68;;;4.05;;
20880;SDS011;10600;53.096;8.802;2023-05-10T00:48:50;6.53;;;3.53;;
20880;SDS011;10600;53.096;8.802;2023-05-10T00:49:50;7.55;;;3.22;;
20880;SDS011;10600;53.096;8.802;2023-05-10T00:50:51;7.60;;;4.05;;
20880;SDS011;10600;53.096;8.802;2023-05-10T00:51:52;7.07;;;4.35;;
20880;SDS011;10600;53.096;8.802;2023-05-10T00:52:53;9.45;;;4.47;;
20880;SDS011;10600;53.096;8.802;2023-05-10T00:53:54;6.75;;;4.03;;
20880;SDS011;10600;53.096;8.802;2023-05-10T00:54:56;7.97;;;4.15;;
20880;SDS011;10600;53.096;8.802;2023-05-10T00:55:57;6.65;;;4.07;;
20880;SDS011;10600;53.096;8.802;2023-05-10T00:56:57;7.95;;;4.00;;
20880;SDS011;10600;53.096;8.802;2023-05-10T00:57:58;5.82;;;3.70;;
20880;SDS011;10600;53.096;8.802;2023-05-10T00:58:59;5.78;;;3.85;;
20880;SDS011;10600;53.096;8.802;2023-05-10T01:00:00;6.53;;;3.97;;
20880;SDS011;10600;53.096;8.802;2023-05-10T01:01:02;6.05;;;3.55;;
20880;SDS011;10600;53.096;8.802;2023-05-10T01:02:02;7.18;;;4.43;;
20880;SDS011;10600;53.096;8.802;2023-05-10T01:03:03;7.05;;;4.22;;
20880;SDS011;10600;53.096;8.802;2023-05-10T01:04:04;7.90;;;3.63;;
20880;SDS011;10600;53.096;8.802;2023-05-10T01:05:05;5.55;;;3.60;;
20880;SDS011;10600;53.096;8.802;2023-05-10T01:06:06;5.93;;;3.53;;
20880;SDS011;10600;53.096;8.802;2023-05-10T01:07:07;6.43;;;3.55;;
20880;SDS011;10600;53.096;8.802;2023-05-10T01:08:08;7.07;;;3.80;;
20880;SDS011;10600;53.096;8.802;2023-05-10T01:09:09;5.45;;;3.97;;
20880;SDS011;10600;53.096;8.802;2023-05-10T01:10:11;6.88;;;3.55;;
20880;SDS011;10600;53.096;8.802;2023-05-10T01:11:12;6.78;;;4.10;;
20880;SDS011;10600;53.096;8.802;2023-05-10T01:12:12;4.13;;;3.28;;
20880;SDS011;10600;53.096;8.802;2023-05-10T01:13:13;7.57;;;3.75;;
20880;SDS011;10600;53.096;8.802;2023-05-10T01:14:23;12.07;;;3.80;;
20880;SDS011;10600;53.096;8.802;2023-05-10T01:15:26;5.80;;;3.95;;
20880;SDS011;10600;53.096;8.802;2023-05-10T01:16:27;7.63;;;4.13;;
20880;SDS011;10600;53.096;8.802;2023-05-10T01:17:29;4.35;;;3.40;;
20880;SDS011;10600;53.096;8.802;2023-05-10T01:18:30;9.40;;;3.50;;
20880;SDS011;10600;53.096;8.802;2023-05-10T01:19:34;5.43;;;3.20;;
20880;SDS011;10600;53.096;8.802;2023-05-10T01:20:39;3.83;;;3.25;;
20880;SDS011;10600;53.096;8.802;2023-05-10T01:33:46;4.47;;;3.28;;
20880;SDS011;10600;53.096;8.802;2023-05-10T01:35:07;6.82;;;3.58;;
20880;SDS011;10600;53.096;8.802;2023-05-10T01:36:26;5.88;;;3.22;;
20880;SDS011;10600;53.096;8.802;2023-05-10T01:37:36;5.47;;;3.60;;
20880;SDS011;10600;53.096;8.802;2023-05-10T01:38:50;5.28;;;3.60;;
20880;SDS011;10600;53.096;8.802;2023-05-10T01:39:57;5.38;;;3.72;;
20880;SDS011;10600;53.096;8.802;2023-05-10T01:42:56;9.38;;;3.80;;
20880;SDS011;10600;53.096;8.802;2023-05-10T01:45:32;10.75;;;4.05;;
20880;SDS011;10600;53.096;8.802;2023-05-10T01:46:39;6.80;;;3.47;;
20880;SDS011;10600;53.096;8.802;2023-05-10T01:47:44;6.13;;;4.05;;
20880;SDS011;10600;53.096;8.802;2023-05-10T01:48:54;6.28;;;4.13;;
20880;SDS011;10600;53.096;8.802;2023-05-10T01:49:57;6.32;;;3.63;;
20880;SDS011;10600;53.096;8.802;2023-05-10T01:51:03;6.63;;;3.60;;
20880;SDS011;10600;53.096;8.802;2023-05-10T01:52:11;5.32;;;3.60;;
20880;SDS011;10600;53.096;8.802;2023-05-10T01:53:13;6.28;;;3.78;;
20880;SDS011;10600;53.096;8.802;2023-05-10T01:54:19;6.65;;;3.88;;
20880;SDS011;10600;53.096;8.802;2023-05-10T01:55:22;5.13;;;3.85;;
20880;SDS011;10600;53.096;8.802;2023-05-10T01:56:26;5.72;;;3.78;;
20880;SDS011;10600;53.096;8.802;2023-05-10T01:57:31;7.28;;;3.70;;
20880;SDS011;10600;53.096;8.802;2023-05-10T01:58:34;6.38;;;3.78;;
20880;SDS011;10600;53.096;8.802;2023-05-10T01:59:36;6.47;;;3.97;;
20880;SDS011;10600;53.096;8.802;2023-05-10T02:00:44;4.95;;;3.13;;
20880;SDS011;10600;53.096;8.802;2023-05-10T02:01:46;6.88;;;4.00;;
20880;SDS011;10600;53.096;8.802;2023-05-10T02:02:48;4.88;;;3.60;;
20880;SDS011;10600;53.096;8.802;2023-05-10T02:03:50;7.30;;;3.53;;
20880;SDS011;10600;53.096;8.802;2023-05-10T02:04:51;7.85;;;3.70;;
20880;SDS011;10600;53.096;8.802;2023-05-10T02:05:54;9.88;;;3.60;;
20880;SDS011;10600;53.096;8.802;2023-05-10T02:06:56;5.20;;;4.00;;
20880;SDS011;10600;53.096;8.802;2023-05-10T02:07:57;5.93;;;4.10;;
20880;SDS011;10600;53.096;8.802;2023-05-10T02:09:01;7.28;;;4.00;;
20880;SDS011;10600;53.096;8.802;2023-05-10T02:10:02;5.13;;;4.00;;
20880;SDS011;10600;53.096;8.802;2023-05-10T02:11:05;9.77;;;3.80;;
20880;SDS011;10600;53.096;8.802;2023-05-10T02:12:07;8.30;;;3.70;;
20880;SDS011;10600;53.096;8.802;2023-05-10T02:13:09;5.75;;;4.10;;
20880;SDS011;10600;53.096;8.802;2023-05-10T02:14:11;6.68;;;3.85;;
20880;SDS011;10600;53.096;8.802;2023-05-10T02:15:15;7.38;;;3.83;;
20880;SDS011;10600;53.096;8.802;2023-05-10T02:16:21;8.57;;;4.22;;
20880;SDS011;10600;53.096;8.802;2023-05-10T02:17:26;5.95;;;3.65;;
20880;SDS011;10600;53.096;8.802;2023-05-10T02:18:28;6.65;;;3.83;;
20880;SDS011;10600;53.096;8.802;2023-05-10T02:19:31;7.93;;;3.60;;
20880;SDS011;10600;53.096;8.802;2023-05-10T02:20:33;5.70;;;3.78;;
20880;SDS011;10600;53.096;8.802;2023-05-10T02:21:35;7.75;;;4.07;;
20880;SDS011;10600;53.096;8.802;2023-05-10T02:22:37;5.35;;;3.65;;
20880;SDS011;10600;53.096;8.802;2023-05-10T02:23:40;6.55;;;4.18;;
20880;SDS011;10600;53.096;8.802;2023-05-10T02:24:41;8.20;;;4.15;;
20880;SDS011;10600;53.096;8.802;2023-05-10T02:25:43;7.70;;;4.30;;
20880;SDS011;10600;53.096;8.802;2023-05-10T02:26:45;6.63;;;4.60;;
20880;SDS011;10600;53.096;8.802;2023-05-10T02:27:49;6.68;;;3.65;;
20880;SDS011;10600;53.096;8.802;2023-05-10T02:28:53;9.38;;;4.28;;
20880;SDS011;10600;53.096;8.802;2023-05-10T02:29:55;9.68;;;4.22;;
20880;SDS011;10600;53.096;8.802;2023-05-10T02:30:57;8.45;;;4.22;;
20880;SDS011;10600;53.096;8.802;2023-05-10T02:31:58;7.18;;;4.05;;
20880;SDS011;10600;53.096;8.802;2023-05-10T02:33:00;6.18;;;3.80;;
20880;SDS011;10600;53.096;8.802;2023-05-10T02:34:03;6.32;;;4.22;;
20880;SDS011;10600;53.096;8.802;2023-05-10T02:35:06;9.90;;;4.38;;
20880;SDS011;10600;53.096;8.802;2023-05-10T02:36:08;7.38;;;4.50;;
20880;SDS011;10600;53.096;8.802;2023-05-10T02:37:10;6.95;;;4.10;;
20880;SDS011;10600;53.096;8.802;2023-05-10T02:38:13;5.22;;;3.80;;
20880;SDS011;10600;53.096;8.802;2023-05-10T02:39:15;8.48;;;4.05;;
20880;SDS011;10600;53.096;8.802;2023-05-10T02:40:18;5.13;;;3.72;;
20880;SDS011;10600;53.096;8.802;2023-05-10T02:41:21;5.50;;;4.55;;
20880;SDS011;10600;53.096;8.802;2023-05-10T02:42:25;5.32;;;3.70;;
20880;SDS011;10600;53.096;8.802;2023-05-10T02:43:27;6.03;;;4.18;;
20880;SDS011;10600;53.096;8.802;2023-05-10T02:44:30;4.32;;;3.47;;
20880;SDS011;10600;53.096;8.802;2023-05-10T02:45:31;6.60;;;4.20;;
20880;SDS011;10600;53.096;8.802;2023-05-10T02:46:35;7.15;;;4.57;;
20880;SDS011;10600;53.096;8.802;2023-05-10T02:47:37;10.20;;;4.50;;
20880;SDS011;10600;53.096;8.802;2023-05-10T02:48:38;7.20;;;4.25;;
20880;SDS011;10600;53.096;8.802;2023-05-10T02:49:39;6.68;;;4.50;;
20880;SDS011;10600;53.096;8.802;2023-05-10T02:50:40;5.82;;;3.85;;
20880;SDS011;10600;53.096;8.802;2023-05-10T02:51:51;4.75;;;4.15;;
20880;SDS011;10600;53.096;8.802;2023-05-10T02:52:59;6.22;;;4.22;;
20880;SDS011;10600;53.096;8.802;2023-05-10T02:54:13;8.57;;;4.32;;
20880;SDS011;10600;53.096;8.802;2023-05-10T02:55:19;6.38;;;4.40;;
20880;SDS011;10600;53.096;8.802;2023-05-10T02:56:28;8.38;;;5.07;;
20880;SDS011;10600;53.096;8.802;2023-05-10T02:57:34;8.27;;;4.28;;
20880;SDS011;10600;53.096;8.802;2023-05-10T02:58:38;6.10;;;4.53;;
20880;SDS011;10600;53.096;8.802;2023-05-10T02:59:39;7.72;;;4.18;;
20880;SDS011;10600;53.096;8.802;2023-05-10T03:00:40;7.50;;;4.57;;
20880;SDS011;10600;53.096;8.802;2023-05-10T03:01:40;5.25;;;4.10;;
20880;SDS011;10600;53.096;8.802;2023-05-10T03:02:41;7.43;;;4.43;;
20880;SDS011;10600;53.096;8.802;2023-05-10T03:03:42;5.65;;;4.38;;
20880;SDS011;10600;53.096;8.802;2023-05-10T03:04:42;8.10;;;4.50;;
20880;SDS011;10600;53.096;8.802;2023-05-10T03:05:43;6.72;;;4.90;;
20880;SDS011;10600;53.096;8.802;2023-05-10T03:06:43;8.25;;;4.78;;
20880;SDS011;10600;53.096;8.802;2023-05-10T03:07:45;7.20;;;4.40;;
20880;SDS011;10600;53.096;8.802;2023-05-10T03:08:46;6.40;;;4.88;;
20880;SDS011;10600;53.096;8.802;2023-05-10T03:09:47;7.15;;;4.82;;
20880;SDS011;10600;53.096;8.802;2023-05-10T03:11:06;6.68;;;4.47;;
20880;SDS011;10600;53.096;8.802;2023-05-10T03:13:29;9.70;;;5.03;;
20880;SDS011;10600;53.096;8.802;2023-05-10T03:15:47;10.10;;;5.32;;
20880;SDS011;10600;53.096;8.802;2023-05-10T03:18:18;10.23;;;4.82;;
20880;SDS011;10600;53.096;8.802;2023-05-10T03:19:24;8.73;;;4.70;;
20880;SDS011;10600;53.096;8.802;2023-05-10T03:20:38;7.85;;;4.60;;
20880;SDS011;10600;53.096;8.802;2023-05-10T03:21:47;7.95;;;4.75;;
20880;SDS011;10600;53.096;8.802;2023-05-10T03:22:53;7.22;;;4.88;;
20880;SDS011;10600;53.096;8.802;2023-05-10T03:24:02;8.40;;;4.95;;
20880;SDS011;10600;53.096;8.802;2023-05-10T03:25:07;6.45;;;4.70;;
20880;SDS011;10600;53.096;8.802;2023-05-10T03:26:12;6.55;;;4.80;;
20880;SDS011;10600;53.096;8.802;2023-05-10T03:27:21;11.45;;;5.20;;
20880;SDS011;10600;53.096;8.802;2023-05-10T03:28:23;9.73;;;5.13;;
20880;SDS011;10600;53.096;8.802;2023-05-10T03:29:25;7.97;;;4.78;;
20880;SDS011;10600;53.096;8.802;2023-05-10T03:30:26;7.78;;;5.45;;
20880;SDS011;10600;53.096;8.802;2023-05-10T03:31:28;7.75;;;4.95;;
20880;SDS011;10600;53.096;8.802;2023-05-10T03:32:28;6.78;;;5.15;;
20880;SDS011;10600;53.096;8.802;2023-05-10T03:33:31;7.85;;;4.95;;
20880;SDS011;10600;53.096;8.802;2023-05-10T03:34:32;7.45;;;5.20;;
20880;SDS011;10600;53.096;8.802;2023-05-10T03:35:33;7.47;;;5.28;;
20880;SDS011;10600;53.096;8.802;2023-05-10T03:36:34;8.00;;;5.05;;
20880;SDS011;10600;53.096;8.802;2023-05-10T03:37:35;17.98;;;5.18;;
20880;SDS011;10600;53.096;8.802;2023-05-10T03:38:35;6.20;;;4.78;;
20880;SDS011;10600;53.096;8.802;2023-05-10T03:39:36;7.90;;;5.00;;
20880;SDS011;10600;53.096;8.802;2023-05-10T03:40:37;9.30;;;4.65;;
20880;SDS011;10600;53.096;8.802;2023-05-10T03:41:37;5.97;;;5.38;;
20880;SDS011;10600;53.096;8.802;2023-05-10T03:42:38;11.73;;;5.75;;
20880;SDS011;10600;53.096;8.802;2023-05-10T03:43:38;11.43;;;5.63;;
20880;SDS011;10600;53.096;8.802;2023-05-10T03:44:39;7.70;;;5.65;;
20880;SDS011;10600;53.096;8.802;2023-05-10T03:45:40;6.40;;;5.07;;
20880;SDS011;10600;53.096;8.802;2023-05-10T03:46:40;8.98;;;5.03;;
20880;SDS011;10600;53.096;8.802;2023-05-10T03:47:41;9.18;;;5.53;;
20880;SDS011;10600;53.096;8.802;2023-05-10T03:48:42;8.63;;;5.10;;
20880;SDS011;10600;53.096;8.802;2023-05-10T03:49:42;7.88;;;5.03;;
20880;SDS011;10600;53.096;8.802;2023-05-10T03:50:43;11.73;;;5.63;;
20880;SDS011;10600;53.096;8.802;2023-05-10T03:51:44;10.77;;;5.60;;
20880;SDS011;10600;53.096;8.802;2023-05-10T03:52:44;10.07;;;5.38;;
20880;SDS011;10600;53.096;8.802;2023-05-10T03:53:45;8.32;;;5.78;;
20880;SDS011;10600;53.096;8.802;2023-05-10T03:54:46;9.55;;;5.60;;
20880;SDS011;10600;53.096;8.802;2023-05-10T03:55:46;7.72;;;5.15;;
20880;SDS011;10600;53.096;8.802;2023-05-10T03:56:47;7.43;;;5.30;;
20880;SDS011;10600;53.096;8.802;2023-05-10T03:57:47;7.30;;;5.30;;
20880;SDS011;10600;53.096;8.802;2023-05-10T03:58:49;9.30;;;5.25;;
20880;SDS011;10600;53.096;8.802;2023-05-10T03:59:50;7.65;;;5.60;;
20880;SDS011;10600;53.096;8.802;2023-05-10T04:00:51;9.25;;;5.38;;
20880;SDS011;10600;53.096;8.802;2023-05-10T04:01:52;7.90;;;5.43;;
20880;SDS011;10600;53.096;8.802;2023-05-10T04:02:52;9.18;;;4.90;;
20880;SDS011;10600;53.096;8.802;2023-05-10T04:03:53;13.00;;;5.72;;
20880;SDS011;10600;53.096;8.802;2023-05-10T04:04:54;10.02;;;5.30;;
20880;SDS011;10600;53.096;8.802;2023-05-10T04:06:00;8.40;;;5.72;;
20880;SDS011;10600;53.096;8.802;2023-05-10T04:07:01;7.57;;;5.47;;
20880;SDS011;10600;53.096;8.802;2023-05-10T04:08:03;11.38;;;5.47;;
20880;SDS011;10600;53.096;8.802;2023-05-10T04:09:03;7.93;;;5.38;;
20880;SDS011;10600;53.096;8.802;2023-05-10T04:10:04;8.80;;;5.15;;
20880;SDS011;10600;53.096;8.802;2023-05-10T04:11:06;11.10;;;5.95;;
20880;SDS011;10600;53.096;8.802;2023-05-10T04:12:08;7.78;;;5.32;;
20880;SDS011;10600;53.096;8.802;2023-05-10T04:13:08;8.80;;;6.00;;
20880;SDS011;10600;53.096;8.802;2023-05-10T04:14:09;8.35;;;5.75;;
20880;SDS011;10600;53.096;8.802;2023-05-10T04:15:10;8.63;;;5.53;;
20880;SDS011;10600;53.096;8.802;2023-05-10T04:16:11;9.13;;;5.63;;
20880;SDS011;10600;53.096;8.802;2023-05-10T04:17:11;8.32;;;5.85;;
20880;SDS011;10600;53.096;8.802;2023-05-10T04:18:12;9.95;;;6.15;;
20880;SDS011;10600;53.096;8.802;2023-05-10T04:19:12;8.13;;;5.97;;
20880;SDS011;10600;53.096;8.802;2023-05-10T04:20:13;7.50;;;5.30;;
20880;SDS011;10600;53.096;8.802;2023-05-10T04:21:14;8.57;;;5.43;;
20880;SDS011;10600;53.096;8.802;2023-05-10T04:22:15;8.27;;;5.72;;
20880;SDS011;10600;53.096;8.802;2023-05-10T04:23:16;9.45;;;5.80;;
20880;SDS011;10600;53.096;8.802;2023-05-10T04:24:16;7.90;;;5.65;;
20880;SDS011;10600;53.096;8.802;2023-05-10T04:25:17;9.27;;;5.65;;
20880;SDS011;10600;53.096;8.802;2023-05-10T04:26:18;9.73;;;6.35;;
20880;SDS011;10600;53.096;8.802;2023-05-10T04:27:18;10.00;;;6.30;;
20880;SDS011;10600;53.096;8.802;2023-05-10T04:28:19;9.55;;;6.03;;
20880;SDS011;10600;53.096;8.802;2023-05-10T04:29:21;7.78;;;6.20;;
20880;SDS011;10600;53.096;8.802;2023-05-10T04:30:22;12.60;;;6.50;;
20880;SDS011;10600;53.096;8.802;2023-05-10T04:31:23;8.88;;;6.15;;
20880;SDS011;10600;53.096;8.802;2023-05-10T04:32:23;10.35;;;5.53;;
20880;SDS011;10600;53.096;8.802;2023-05-10T04:33:24;9.50;;;6.45;;
20880;SDS011;10600;53.096;8.802;2023-05-10T04:34:24;9.35;;;6.15;;
20880;SDS011;10600;53.096;8.802;2023-05-10T04:35:25;8.45;;;5.50;;
20880;SDS011;10600;53.096;8.802;2023-05-10T04:36:26;10.70;;;6.35;;
20880;SDS011;10600;53.096;8.802;2023-05-10T04:37:27;8.27;;;5.80;;
20880;SDS011;10600;53.096;8.802;2023-05-10T04:38:28;9.27;;;6.47;;
20880;SDS011;10600;53.096;8.802;2023-05-10T04:39:29;11.05;;;6.40;;
20880;SDS011;10600;53.096;8.802;2023-05-10T04:40:29;10.85;;;6.72;;
20880;SDS011;10600;53.096;8.802;2023-05-10T04:41:30;9.40;;;6.13;;
20880;SDS011;10600;53.096;8.802;2023-05-10T04:42:31;9.00;;;6.93;;
20880;SDS011;10600;53.096;8.802;2023-05-10T04:43:32;14.43;;;7.15;;
20880;SDS011;10600;53.096;8.802;2023-05-10T04:44:33;10.07;;;7.25;;
20880;SDS011;10600;53.096;8.802;2023-05-10T04:45:33;9.15;;;6.47;;
20880;SDS011;10600;53.096;8.802;2023-05-10T04:46:34;9.40;;;6.80;;
20880;SDS011;10600;53.096;8.802;2023-05-10T04:47:34;11.80;;;6.78;;
20880;SDS011;10600;53.096;8.802;2023-05-10T04:48:36;10.30;;;6.93;;
20880;SDS011;10600;53.096;8.802;2023-05-10T04:49:37;12.18;;;7.22;;
20880;SDS011;10600;53.096;8.802;2023-05-10T04:50:38;10.40;;;6.43;;
20880;SDS011;10600;53.096;8.802;2023-05-10T04:51:39;11.27;;;7.10;;
20880;SDS011;10600;53.096;8.802;2023-05-10T04:52:40;12.85;;;7.30;;
20880;SDS011;10600;53.096;8.802;2023-05-10T04:53:40;9.20;;;7.20;;
20880;SDS011;10600;53.096;8.802;2023-05-10T04:54:41;10.38;;;6.80;;
20880;SDS011;10600;53.096;8.802;2023-05-10T04:55:42;13.13;;;7.20;;
20880;SDS011;10600;53.096;8.802;2023-05-10T04:56:42;8.73;;;7.45;;
20880;SDS011;10600;53.096;8.802;2023-05-10T04:57:43;10.48;;;7.00;;
20880;SDS011;10600;53.096;8.802;2023-05-10T04:58:44;9.10;;;7.25;;
20880;SDS011;10600;53.096;8.802;2023-05-10T04:59:45;10.68;;;7.55;;
20880;SDS011;10600;53.096;8.802;2023-05-10T05:00:46;9.88;;;6.70;;
20880;SDS011;10600;53.096;8.802;2023-05-10T05:01:47;10.55;;;7.55;;
20880;SDS011;10600;53.096;8.802;2023-05-10T05:02:47;10.93;;;8.07;;
20880;SDS011;10600;53.096;8.802;2023-05-10T05:03:48;10.00;;;7.20;;
20880;SDS011;10600;53.096;8.802;2023-05-10T05:04:48;10.48;;;7.32;;
20880;SDS011;10600;53.096;8.802;2023-05-10T05:05:49;13.65;;;7.95;;
20880;SDS011;10600;53.096;8.802;2023-05-10T05:06:50;9.48;;;7.47;;
20880;SDS011;10600;53.096;8.802;2023-05-10T05:07:50;11.77;;;8.00;;
20880;SDS011;10600;53.096;8.802;2023-05-10T05:08:51;11.93;;;7.72;;
20880;SDS011;10600;53.096;8.802;2023-05-10T05:09:52;9.75;;;7.82;;
20880;SDS011;10600;53.096;8.802;2023-05-10T05:10:52;9.02;;;7.63;;
20880;SDS011;10600;53.096;8.802;2023-05-10T05:11:53;10.98;;;7.82;;
20880;SDS011;10600;53.096;8.802;2023-05-10T05:12:53;13.40;;;8.40;;
20880;SDS011;10600;53.096;8.802;2023-05-10T05:13:54;10.88;;;8.05;;
20880;SDS011;10600;53.096;8.802;2023-05-10T05:14:55;14.60;;;9.13;;
20880;SDS011;10600;53.096;8.802;2023-05-10T05:15:56;11.88;;;8.48;;
20880;SDS011;10600;53.096;8.802;2023-05-10T05:16:56;10.90;;;8.18;;
20880;SDS011;10600;53.096;8.802;2023-05-10T05:17:57;13.30;;;8.63;;
20880;SDS011;10600;53.096;8.802;2023-05-10T05:18:58;10.85;;;8.52;;
20880;SDS011;10600;53.096;8.802;2023-05-10T05:19:59;13.10;;;8.43;;
20880;SDS011;10600;53.096;8.802;2023-05-10T05:21:00;11.52;;;8.73;;
20880;SDS011;10600;53.096;8.802;2023-05-10T05:22:01;11.82;;;8.57;;
20880;SDS011;10600;53.096;8.802;2023-05-10T05:23:01;13.60;;;8.70;;
20880;SDS011;10600;53.096;8.802;2023-05-10T05:24:02;10.65;;;8.77;;
20880;SDS011;10600;53.096;8.802;2023-05-10T05:25:03;12.23;;;8.82;;
20880;SDS011;10600;53.096;8.802;2023-05-10T05:26:04;12.80;;;8.68;;
20880;SDS011;10600;53.096;8.802;2023-05-10T05:27:05;11.13;;;8.70;;
20880;SDS011;10600;53.096;8.802;2023-05-10T05:28:06;9.68;;;7.97;;
20880;SDS011;10600;53.096;8.802;2023-05-10T05:29:06;11.50;;;8.82;;
20880;SDS011;10600;53.096;8.802;2023-05-10T05:30:07;12.93;;;9.18;;
20880;SDS011;10600;53.096;8.802;2023-05-10T05:31:08;14.73;;;9.13;;
20880;SDS011;10600;53.096;8.802;2023-05-10T05:32:09;12.73;;;8.52;;
20880;SDS011;10600;53.096;8.802;2023-05-10T05:33:10;11.57;;;9.13;;
20880;SDS011;10600;53.096;8.802;2023-05-10T05:34:11;13.35;;;9.48;;
20880;SDS011;10600;53.096;8.802;2023-05-10T05:35:12;16.48;;;10.35;;
20880;SDS011;10600;53.096;8.802;2023-05-10T05:36:13;12.25;;;8.98;;
20880;SDS011;10600;53.096;8.802;2023-05-10T05:37:17;12.70;;;8.88;;
20880;SDS011;10600;53.096;8.802;2023-05-10T05:38:18;13.68;;;9.55;;
20880;SDS011;10600;53.096;8.802;2023-05-10T05:39:19;15.35;;;9.23;;
20880;SDS011;10600;53.096;8.802;2023-05-10T05:40:19;11.25;;;8.95;;
20880;SDS011;10600;53.096;8.802;2023-05-10T05:41:20;13.10;;;8.70;;
20880;SDS011;10600;53.096;8.802;2023-05-10T05:42:21;11.65;;;9.57;;
20880;SDS011;10600;53.096;8.802;2023-05-10T05:43:22;16.23;;;9.25;;
20880;SDS011;10600;53.096;8.802;2023-05-10T05:44:23;12.70;;;9.35;;
20880;SDS011;10600;53.096;8.802;2023-05-10T05:45:23;12.27;;;8.98;;
20880;SDS011;10600;53.096;8.802;2023-05-10T05:46:24;13.10;;;9.32;;
20880;SDS011;10600;53.096;8.802;2023-05-10T05:47:25;12.20;;;9.15;;
20880;SDS011;10600;53.096;8.802;2023-05-10T05:48:25;14.68;;;9.45;;
20880;SDS011;10600;53.096;8.802;2023-05-10T05:49:26;11.00;;;8.88;;
20880;SDS011;10600;53.096;8.802;2023-05-10T05:50:27;13.18;;;9.38;;
20880;SDS011;10600;53.096;8.802;2023-05-10T05:51:28;13.68;;;10.00;;
20880;SDS011;10600;53.096;8.802;2023-05-10T05:52:28;11.18;;;9.55;;
20880;SDS011;10600;53.096;8.802;2023-05-10T05:53:30;15.23;;;10.40;;
20880;SDS011;10600;53.096;8.802;2023-05-10T05:54:30;14.27;;;9.27;;
20880;SDS011;10600;53.096;8.802;2023-05-10T05:55:31;13.63;;;9.98;;
20880;SDS011;10600;53.096;8.802;2023-05-10T05:56:32;15.15;;;10.52;;
20880;SDS011;10600;53.096;8.802;2023-05-10T05:57:33;17.17;;;10.63;;
20880;SDS011;10600;53.096;8.802;2023-05-10T05:58:33;15.32;;;10.73;;
20880;SDS011;10600;53.096;8.802;2023-05-10T05:59:34;16.70;;;10.55;;
20880;SDS011;10600;53.096;8.802;2023-05-10T06:00:34;16.00;;;10.23;;
20880;SDS011;10600;53.096;8.802;2023-05-10T06:01:35;16.40;;;10.80;;
20880;SDS011;10600;53.096;8.802;2023-05-10T06:02:36;13.38;;;10.38;;
20880;SDS011;10600;53.096;8.802;2023-05-10T06:03:36;14.07;;;10.52;;
20880;SDS011;10600;53.096;8.802;2023-05-10T06:04:37;16.33;;;10.48;;
20880;SDS011;10600;53.096;8.802;2023-05-10T06:05:37;16.40;;;10.77;;
20880;SDS011;10600;53.096;8.802;2023-05-10T06:06:38;13.55;;;10.77;;
20880;SDS011;10600;53.096;8.802;2023-05-10T06:07:39;14.80;;;11.02;;
20880;SDS011;10600;53.096;8.802;2023-05-10T06:08:42;13.18;;;10.23;;
20880;SDS011;10600;53.096;8.802;2023-05-10T06:09:42;12.95;;;10.50;;
20880;SDS011;10600;53.096;8.802;2023-05-10T06:10:43;14.70;;;10.95;;
20880;SDS011;10600;53.096;8.802;2023-05-10T06:11:44;16.95;;;11.30;;
20880;SDS011;10600;53.096;8.802;2023-05-10T06:12:45;14.55;;;11.30;;
20880;SDS011;10600;53.096;8.802;2023-05-10T06:13:45;18.58;;;12.63;;
20880;SDS011;10600;53.096;8.802;2023-05-10T06:14:47;16.27;;;10.27;;
20880;SDS011;10600;53.096;8.802;2023-05-10T06:15:47;15.90;;;11.32;;
20880;SDS011;10600;53.096;8.802;2023-05-10T06:16:48;19.27;;;11.15;;
20880;SDS011;10600;53.096;8.802;2023-05-10T06:17:48;16.67;;;11.50;;
20880;SDS011;10600;53.096;8.802;2023-05-10T06:18:49;15.38;;;11.23;;
20880;SDS011;10600;53.096;8.802;2023-05-10T06:19:51;18.67;;;11.93;;
20880;SDS011;10600;53.096;8.802;2023-05-10T06:20:51;14.50;;;11.23;;
20880;SDS011;10600;53.096;8.802;2023-05-10T06:21:52;18.50;;;12.73;;
20880;SDS011;10600;53.096;8.802;2023-05-10T06:22:52;16.02;;;12.18;;
20880;SDS011;10600;53.096;8.802;2023-05-10T06:23:53;19.27;;;12.77;;
20880;SDS011;10600;53.096;8.802;2023-05-10T06:24:54;21.80;;;12.82;;
20880;SDS011;10600;53.096;8.802;2023-05-10T06:25:54;18.83;;;11.90;;
20880;SDS011;10600;53.096;8.802;2023-05-10T06:26:55;17.90;;;11.65;;
20880;SDS011;10600;53.096;8.802;2023-05-10T06:27:56;17.20;;;12.70;;
20880;SDS011;10600;53.096;8.802;2023-05-10T06:28:57;16.38;;;11.52;;
20880;SDS011;10600;53.096;8.802;2023-05-10T06:29:58;15.43;;;12.45;;